KHLX

Twin County Airport

Galax Hillsville, Virginia, USA
METAR KHLX 161855Z AUTO 29006KT 10SM OVC020 01/00 A3014 RMK AO2 T00111005
Observed Flight Rules
Jan-16 @ 18:55 UTC (15 minutes ago) Marginal Visual Flight Rules
Wind Visibility Clouds
290° at 6 knots 10 miles
  • Overcast at 2,000' AGL
Temperatures Readings
Current 1°C / 34°F
Dewpoint -1°C / 30°F
Humidity 87%
Altimeter 30.14" Hg
Pressure 1020.62 hPa
Elevation 834
METAR KHLX 161855Z AUTO 29006KT 10SM OVC020 01/00 A3014 RMK AO2 T00111005
Observed Flight Rules
Jan-16 @ 18:55 UTC
(15 minutes ago)
MVFR
Wind Visibility
290° at 6 knots 10 miles
Clouds
  • Overcast at 2,000' AGL
Temperature Dewpoint
1°C / 34°F -1°C / 30°F
Humidity Altimeter Pressure
87% 30.14" Hg 1020.62 hPa